Date,TemperatureHighF,TemperatureAvgF,TemperatureLowF,DewpointHighF,DewpointAvgF,DewpointLowF,HumidityHigh,HumidityAvg,HumidityLow,PressureMaxIn,PressureMinIn,WindSpeedMaxMPH,WindSpeedAvgMPH,GustSpeedMaxMPH,PrecipitationSumIn
2013-1-1,47,42,37,46,41,32,99,94,77,30.21,30.03,6,0,6,1.00
2013-1-2,46,39,36,46,38,35,100,95,91,30.22,30.01,16,1,16,0.01
2013-1-3,39,35,27,36,32,25,97,90,73,30.43,30.18,12,2,12,0.00
2013-1-4,42,30,21,30,24,20,97,79,43,30.50,30.39,15,2,15,0.00
2013-1-5,40,26,20,36,23,18,95,91,81,30.48,30.34,3,0,3,0.02
2013-1-6,46,38,33,40,35,30,97,87,69,30.35,30.20,14,2,14,0.05
2013-1-7,56,38,24,35,28,22,99,72,29,30.47,30.32,13,1,13,0.00
2013-1-8,58,41,25,48,36,24,97,85,62,30.49,30.37,15,1,15,0.00
2013-1-9,56,51,46,55,50,44,98,96,93,30.49,30.41,4,0,4,0.03
2013-1-10,66,56,48,60,52,47,99,87,65,30.48,30.24,22,3,22,0.00
2013-1-11,65,61,58,62,59,54,98,94,87,30.24,30.11,19,2,19,0.27
2013-1-12,73,62,57,66,59,55,99,91,65,30.18,30.06,13,1,13,0.04
2013-1-13,68,63,55,60,58,54,97,85,75,30.11,30.00,14,1,14,1.03
2013-1-14,61,50,43,60,49,42,99,98,97,30.23,30.02,12,0,12,1.23
2013-1-15,57,48,44,57,48,44,100,99,99,30.18,29.99,5,0,5,1.54
2013-1-16,60,54,48,60,54,48,100,99,98,30.04,29.93,9,1,9,0.64
2013-1-17,48,43,32,48,42,31,99,98,93,30.33,29.69,17,2,17,1.09
2013-1-18,53,36,25,35,30,24,98,81,40,30.59,30.33,9,0,9,0.01
2013-1-19,54,36,22,38,28,21,97,77,36,30.53,30.31,9,1,9,0.00
2013-1-20,57,37,24,40,30,23,97,79,39,30.32,30.18,13,1,13,0.01
2013-1-21,48,34,24,38,24,15,98,69,37,30.26,30.16,19,4,19,0.00
2013-1-22,36,28,22,16,10,5,60,47,31,30.40,30.25,19,6,19,0.00
2013-1-23,48,34,26,28,19,7,89,55,41,30.46,30.25,16,2,16,0.00
2013-1-24,46,36,22,40,22,5,95,61,26,30.45,30.21,20,5,20,0.00
2013-1-25,33,30,22,32,25,10,97,82,44,30.45,30.22,17,1,17,0.01
2013-1-26,50,36,27,37,31,25,98,84,41,30.41,30.25,9,1,9,0.03
2013-1-27,52,38,24,38,30,23,97,76,52,30.54,30.40,14,2,14,0.00
2013-1-28,57,47,41,52,42,32,96,80,62,30.48,30.32,13,1,13,0.00
2013-1-29,64,53,40,60,50,39,99,91,81,30.34,29.98,15,1,15,0.01
2013-1-30,66,64,61,63,60,58,97,89,79,29.98,29.55,24,4,24,0.67
2013-1-31,42,34,29,28,26,23,87,72,48,30.18,30.11,14,1,14,0.01
2013-2-1,41,29,19,32,17,9,91,63,39,30.47,30.14,24,6,24,0.00
2013-2-2,33,26,17,32,23,14,97,90,64,30.47,30.23,9,0,9,0.01
2013-2-3,46,36,29,36,30,26,98,81,52,30.24,30.09,18,3,18,0.37
2013-2-4,48,35,24,35,28,22,94,78,50,30.23,30.08,9,0,9,0.00
2013-2-5,59,42,34,45,37,31,100,84,44,30.12,30.01,8,0,8,0.00
2013-2-6,62,42,29,46,32,26,99,74,28,30.27,30.11,11,1,11,0.01
2013-2-7,49,41,32,48,39,30,99,93,86,30.24,30.01,12,0,12,0.20
2013-2-8,52,44,34,47,41,30,99,90,63,30.26,29.98,17,3,17,0.11
2013-2-9,62,40,24,36,29,22,98,72,24,30.40,30.23,6,0,6,0.01
2013-2-10,54,46,34,49,36,24,98,71,32,30.37,30.13,23,3,23,0.86
2013-2-11,54,49,39,54,47,38,100,94,67,30.17,30.06,12,1,12,0.16
2013-2-12,51,42,32,43,36,30,97,83,46,30.18,29.90,9,0,9,0.22
2013-2-13,48,42,35,46,40,31,98,92,83,30.03,29.75,18,3,18,0.04
2013-2-14,54,41,33,37,33,30,89,73,41,30.14,30.02,12,2,12,0.00
2013-2-15,56,44,28,42,36,28,97,77,41,30.20,30.06,18,3,18,0.12
2013-2-16,35,30,25,32,23,14,95,75,46,30.20,30.02,23,6,23,0.00
2013-2-17,39,28,19,18,14,10,84,57,36,30.37,30.20,18,4,18,0.00
2013-2-18,57,38,18,30,24,16,94,62,33,30.45,30.17,25,2,25,0.00
2013-2-19,51,43,36,46,29,15,97,61,27,30.21,30.02,21,5,21,0.27
2013-2-20,43,34,24,20,15,3,80,49,20,30.26,30.20,17,4,17,0.00
2013-2-21,65,41,22,40,24,3,95,61,11,30.29,30.04,15,1,15,0.51
2013-2-22,49,44,40,45,42,39,97,92,85,30.23,30.06,18,1,18,0.60
2013-2-23,58,49,39,53,47,38,99,94,81,30.08,29.87,7,0,7,0.49
2013-2-24,58,42,29,38,32,27,98,72,32,30.09,29.95,15,2,15,0.01
2013-2-25,54,40,28,41,33,26,96,78,48,30.11,29.89,17,1,17,0.00
2013-2-26,52,46,40,47,42,34,96,86,73,29.90,29.56,28,4,28,0.71
2013-2-27,54,42,37,39,35,32,96,76,47,29.92,29.77,24,3,24,0.05
2013-2-28,40,35,33,32,28,26,83,75,68,30.06,29.88,21,6,21,0.00
2013-3-1,33,32,32,30,28,26,88,84,76,30.05,30.00,9,2,9,0.00
2013-3-2,34,31,28,30,27,23,92,84,80,30.11,30.01,19,6,19,0.01
2013-3-3,35,28,22,25,21,18,89,74,56,30.17,30.08,19,6,19,0.00
2013-3-4,56,36,18,35,24,16,95,67,34,30.27,30.09,4,0,9,0.00
2013-3-5,55,42,34,52,39,28,98,89,77,30.15,29.72,14,3,24,0.46
2013-3-6,34,30,28,29,26,22,92,85,70,30.29,29.89,15,9,25,0.00
2013-3-7,48,35,27,34,29,25,92,79,55,30.37,30.26,10,3,15,0.00
2013-3-8,59,37,21,34,25,19,97,69,27,30.44,30.30,6,1,12,0.00
2013-3-9,65,45,25,36,29,24,95,61,25,30.40,30.25,5,1,11,0.00
2013-3-10,57,49,42,42,35,31,80,60,43,30.27,30.09,9,3,19,0.00
2013-3-11,59,55,49,52,49,42,97,83,58,30.10,29.79,10,4,22,0.99
2013-3-12,49,39,36,48,36,31,97,89,73,30.16,29.86,9,5,20,0.01
2013-3-13,37,33,28,31,28,19,93,82,61,30.35,30.14,9,1,16,0.00
2013-3-14,44,32,25,29,20,16,77,63,34,30.43,30.33,9,4,18,0.00
2013-3-15,70,49,27,44,36,25,100,65,35,30.33,30.01,11,2,21,0.00
2013-3-16,74,61,46,50,45,41,82,58,38,30.01,29.85,10,2,22,0.00
2013-3-17,69,57,45,53,47,41,90,69,46,30.00,29.91,6,1,18,0.00
2013-3-18,56,52,45,53,49,44,97,90,80,29.98,29.84,10,2,15,0.74
2013-3-19,57,46,36,48,34,19,98,66,32,30.17,29.91,12,4,21,0.01
2013-3-20,54,42,32,32,22,14,78,47,22,30.19,29.95,12,4,24,0.00
2013-3-21,40,32,23,28,16,10,78,55,33,30.07,29.97,11,6,21,0.00
2013-3-22,46,36,25,35,24,18,83,65,41,30.16,30.06,2,0,6,0.00
2013-3-23,55,46,39,49,42,33,97,90,74,30.11,29.81,5,0,12,0.13
2013-3-24,58,49,40,52,46,32,98,90,72,29.90,29.49,15,3,33,1.30
2013-3-25,40,33,30,32,26,23,89,76,66,30.10,29.67,14,8,25,0.00
2013-3-26,37,32,29,30,26,24,87,80,68,30.35,30.09,12,7,20,0.00
2013-3-27,49,37,29,28,25,22,86,64,37,30.41,30.32,10,4,19,0.00
2013-3-28,55,39,23,31,26,20,94,63,32,30.41,30.31,11,3,18,0.00
2013-3-29,55,39,25,40,31,23,94,75,39,30.43,30.29,4,0,9,0.00
2013-3-30,66,52,42,52,43,36,96,75,34,30.29,30.05,9,1,26,0.29
2013-3-31,62,56,52,56,53,51,98,92,73,30.05,29.89,5,1,13,0.54
2013-4-1,64,53,40,54,44,37,100,76,47,30.09,29.90,11,3,17,0.01
2013-4-2,54,44,35,37,30,19,79,59,27,30.23,30.07,13,3,13,0.00
2013-4-3,61,53,37,38,31,23,76,45,24,30.25,30.16,12,2,12,0.00
2013-4-4,52,42,39,42,38,29,97,88,42,30.21,30.00,22,1,22,0.72
2013-4-5,60,49,40,46,41,36,98,77,43,30.15,30.00,17,3,17,0.00
2013-4-6,70,50,30,46,36,29,98,64,26,30.26,30.14,17,2,17,0.01
2013-4-7,72,57,37,48,42,34,94,61,34,30.24,30.10,15,2,15,0.00
2013-4-8,76,61,45,55,49,42,95,67,41,30.17,30.07,16,2,16,0.00
2013-4-9,81,64,47,59,52,46,97,68,39,30.20,30.07,20,2,20,0.00
2013-4-10,86,67,47,61,54,45,100,67,34,30.14,29.93,18,1,18,0.00
2013-4-11,76,68,60,64,58,54,97,72,52,29.95,29.65,20,3,20,0.93
2013-4-12,64,58,45,60,49,39,97,77,41,29.97,29.63,16,3,16,0.43
2013-4-13,70,53,35,46,38,33,100,63,30,30.11,29.97,14,2,14,0.00
2013-4-14,66,51,36,51,43,34,97,78,41,30.10,29.98,23,2,23,0.01
2013-4-15,79,64,53,59,55,50,95,75,47,30.16,29.97,17,2,17,0.00
2013-4-16,80,67,52,63,58,50,97,77,52,30.25,30.14,14,2,14,0.00
2013-4-17,81,67,59,65,61,57,96,83,53,30.23,30.07,18,2,18,0.28
2013-4-18,77,67,58,63,59,56,98,77,52,30.09,29.88,24,3,24,0.01
2013-4-19,69,59,43,63,53,35,95,81,69,30.07,29.74,22,5,22,0.64
2013-4-20,58,47,34,35,33,30,90,61,36,30.32,30.07,19,4,19,0.00
2013-4-21,68,49,31,43,35,29,97,65,28,30.42,30.28,19,2,19,0.00
2013-4-22,72,54,35,44,39,34,96,62,29,30.39,30.16,15,2,15,0.00
2013-4-23,76,57,36,49,42,34,96,62,32,30.26,30.08,14,1,14,0.00
2013-4-24,71,58,47,60,52,45,94,83,59,30.19,30.06,19,2,19,0.16
2013-4-25,65,50,37,45,37,27,97,67,26,30.39,30.19,15,3,15,0.00
2013-4-26,60,39,31,51,35,29,96,87,65,30.46,30.32,5,0,5,0.02
2013-4-27,56,53,51,53,51,49,97,93,85,30.42,30.19,13,1,13,0.63
2013-4-28,56,54,52,55,53,51,100,96,86,30.20,29.99,21,2,21,2.52
2013-4-29,73,59,50,59,53,49,99,82,49,30.08,29.96,11,1,11,0.01
2013-4-30,80,61,46,60,52,45,98,76,41,30.13,30.00,19,1,19,0.01
2013-5-1,73,63,53,57,54,52,96,75,52,30.21,30.12,18,2,18,0.00
2013-5-2,69,61,52,58,54,49,95,77,62,30.21,30.14,17,3,17,0.00
2013-5-3,66,60,58,55,53,49,86,78,59,30.16,29.99,22,4,22,0.00
2013-5-4,59,54,52,53,50,43,97,85,67,30.00,29.88,23,3,23,1.22
2013-5-5,59,54,47,53,51,46,98,92,78,29.89,29.78,22,2,22,1.25
2013-5-6,54,49,43,49,46,42,98,91,79,29.96,29.81,14,1,14,0.07
2013-5-7,67,56,48,53,50,47,98,81,51,30.01,29.92,15,2,15,0.01
2013-5-8,72,59,50,58,54,48,98,83,56,30.09,29.97,13,1,13,0.00
2013-5-9,79,63,48,62,54,47,100,77,42,30.16,30.05,12,1,12,0.00
2013-5-10,73,62,49,62,56,48,98,81,58,30.13,29.97,12,1,12,0.00
2013-5-11,73,62,56,64,59,55,98,89,65,30.01,29.89,16,1,16,0.33
2013-5-12,62,57,49,47,38,33,79,51,36,30.16,30.06,17,5,17,0.00
2013-5-13,64,50,33,41,36,30,95,62,30,30.28,30.15,18,3,18,0.00
2013-5-14,78,57,34,56,45,32,96,70,41,30.31,30.14,13,1,13,0.00
2013-5-15,85,66,47,62,53,45,97,69,29,30.22,30.02,12,2,13,0.00
2013-5-16,82,65,51,65,56,50,97,77,45,30.10,29.99,11,0,11,0.00
2013-5-17,80,67,54,64,58,53,98,76,47,30.12,30.03,15,1,15,0.00
2013-5-18,71,66,62,66,63,60,98,91,82,30.09,30.03,7,0,7,0.36
2013-5-19,68,66,64,67,64,62,98,96,93,30.12,30.03,8,0,8,0.35
2013-5-22,85,75,63,69,63,59,93,69,45,29.93,29.84,0,0,0,0.02
2013-5-23,80,68,60,65,59,54,98,75,46,30.00,29.90,21,1,21,0.01
2013-5-24,68,61,48,55,49,41,86,66,40,30.26,30.00,22,6,22,0.00
2013-5-25,76,57,38,51,42,34,98,65,25,30.38,30.23,14,2,14,0.00
2013-5-26,78,60,43,55,48,42,97,71,35,30.33,30.20,10,1,10,0.00
2013-5-27,85,66,47,62,54,46,97,71,35,30.28,30.13,13,1,13,0.00
2013-5-28,85,71,58,64,59,52,96,70,35,30.20,30.12,18,1,18,0.00
2013-5-29,84,69,54,65,59,51,98,74,32,30.23,30.13,16,2,16,0.00
2013-5-30,81,69,56,65,61,55,98,77,52,30.26,30.14,16,2,16,0.00
2013-5-31,81,68,59,66,62,58,97,83,54,30.21,30.12,16,2,16,0.00
2013-6-1,82,77,68,69,66,63,95,71,56,30.09,29.99,20,3,20,0.08
2013-6-2,74,70,66,72,68,64,98,94,85,30.01,29.88,12,0,12,1.98
2013-6-3,79,70,62,69,65,60,99,85,60,29.99,29.89,14,2,14,0.01
2013-6-4,85,69,58,69,61,57,99,80,44,30.05,29.97,8,0,8,0.00
2013-6-5,82,67,59,70,63,58,98,88,62,30.06,29.93,15,2,15,1.30
2013-6-6,80,69,61,71,66,60,99,91,67,29.96,29.76,14,0,14,0.00
2013-6-7,81,70,63,70,66,62,98,88,61,29.87,29.70,11,1,11,0.24
2013-6-8,80,68,61,69,64,60,99,87,57,30.10,29.86,8,0,8,0.01
2013-6-9,83,70,60,72,66,59,99,88,60,30.13,29.99,14,1,14,0.15
2013-6-10,80,71,66,69,66,61,97,85,57,30.01,29.92,12,1,12,0.28
2013-6-11,84,74,66,74,69,65,99,86,63,30.04,29.95,14,2,14,0.12
2013-6-12,89,75,65,76,70,64,99,85,54,30.08,29.97,15,1,15,0.00
2013-6-13,86,73,66,74,69,65,99,87,64,29.98,29.72,24,2,24,0.31
2013-6-14,84,70,56,66,61,55,98,75,39,30.05,29.86,11,1,11,0.00
2013-6-15,84,70,54,66,60,52,98,76,46,30.16,30.05,9,1,9,0.00
2013-6-16,86,72,57,70,64,56,98,78,48,30.17,30.01,9,0,9,0.09
2013-6-17,82,72,67,74,69,66,98,92,70,30.07,29.94,12,0,12,0.12
2013-6-18,76,70,66,72,68,65,98,94,83,29.96,29.85,15,1,15,0.49
2013-6-19,83,71,61,71,65,61,99,84,56,30.10,29.92,8,0,8,0.01
2013-6-20,84,69,60,70,64,58,98,87,54,30.23,30.09,12,0,12,0.13
2013-6-21,82,69,62,70,65,61,99,87,54,30.27,30.19,17,1,17,0.03
2013-6-22,84,71,61,70,64,61,99,81,50,30.27,30.11,7,0,7,0.00
2013-6-23,75,65,58,70,63,57,98,94,85,30.22,30.12,5,0,5,0.02
2013-6-24,87,72,63,73,68,63,99,86,55,30.24,30.11,11,1,11,0.02
2013-6-25,83,72,64,72,68,64,99,88,67,30.18,30.05,8,0,8,0.00
2013-6-26,72,68,66,70,67,66,99,97,93,30.09,29.94,1,0,2,0.04
2013-6-27,85,75,68,74,71,67,98,87,68,29.99,29.80,14,1,14,0.01
2013-6-28,88,73,65,74,68,64,99,86,49,29.86,29.67,27,1,27,0.45
2013-6-29,83,72,64,72,65,60,99,80,49,29.74,29.67,11,1,11,0.00
2013-6-30,86,72,58,68,61,53,98,74,36,29.81,29.72,12,1,12,0.00
2013-7-1,82,70,63,69,66,62,97,88,60,29.93,29.79,14,1,14,0.28
2013-7-2,79,70,63,74,67,62,99,91,68,30.10,29.93,17,1,17,0.34
2013-7-3,68,65,62,68,65,62,99,98,96,30.20,30.08,9,0,9,0.85
2013-7-4,74,68,64,71,67,63,100,96,88,30.20,30.12,13,1,13,0.34
2013-7-5,78,70,67,71,68,66,98,92,71,30.22,30.14,14,1,14,0.81
2013-7-6,79,70,66,72,68,65,99,94,75,30.18,30.11,12,1,14,1.02
2013-7-7,81,72,68,72,70,67,99,91,70,30.18,30.10,9,0,9,0.06
2013-7-8,86,75,68,74,70,68,99,86,62,30.20,30.10,8,1,8,0.00
2013-7-9,88,77,68,77,72,66,99,85,61,30.17,30.06,17,1,17,1.69
2013-7-10,87,72,67,77,70,66,99,94,65,30.13,29.98,14,0,14,0.16
2013-7-11,85,74,69,74,71,68,99,90,68,29.99,29.88,7,0,7,0.01
2013-7-12,83,74,67,73,69,65,99,86,63,29.97,29.89,13,2,13,0.00
2013-7-13,78,71,64,70,67,64,99,86,71,30.09,29.96,15,1,15,0.00
2013-7-14,78,71,67,73,69,66,98,93,81,30.25,30.07,15,1,15,0.17
2013-7-15,85,75,65,74,69,64,98,83,60,30.32,30.22,13,1,13,0.00
2013-7-16,92,76,63,76,70,63,99,82,48,30.34,30.23,7,0,7,0.00
2013-7-17,92,76,68,76,71,67,99,87,52,30.31,30.14,16,1,16,0.05
2013-7-18,90,75,67,75,70,66,99,86,58,30.25,30.06,9,0,9,0.01
2013-7-19,86,75,67,77,71,66,99,88,63,30.15,29.99,7,0,7,0.07
2013-7-20,88,75,68,75,70,67,99,87,62,30.06,29.92,13,1,13,0.02
2013-7-21,87,73,67,75,70,66,99,90,62,30.05,29.94,14,1,14,0.03
2013-7-22,84,74,67,74,70,66,99,89,67,30.02,29.86,12,1,12,0.10
2013-7-23,73,68,66,71,66,65,98,96,91,29.95,29.88,2,0,2,0.04
2013-7-24,84,77,67,74,71,66,97,81,66,29.89,29.81,10,2,10,0.00
2013-7-25,86,72,63,71,66,62,99,83,49,30.04,29.88,13,1,13,0.00
2013-7-26,76,65,61,71,64,60,98,95,82,30.08,30.00,13,0,13,0.44
2013-7-27,82,72,65,73,67,64,99,88,56,30.04,29.90,11,0,11,0.01
2013-7-28,82,71,62,70,65,62,99,85,56,30.08,29.94,13,1,13,0.00
2013-7-29,80,67,58,66,60,53,98,80,42,30.23,30.07,9,1,9,0.00
2013-7-30,88,70,56,72,62,55,98,79,40,30.27,30.13,6,0,6,0.00
2013-7-31,76,71,68,72,69,67,98,93,83,30.16,29.98,9,0,9,0.32
2013-8-1,82,73,66,73,69,64,99,88,65,30.01,29.93,13,1,13,0.13
2013-8-2,86,72,63,71,66,62,99,83,47,30.06,29.97,8,0,8,0.00
2013-8-3,82,72,64,73,67,63,99,87,60,30.08,30.01,9,1,9,0.00
2013-8-4,82,74,65,72,68,62,99,83,60,30.07,29.99,14,2,14,0.01
2013-8-5,86,71,60,71,64,59,99,80,46,30.10,30.00,10,0,10,0.00
2013-8-6,85,74,66,74,69,65,97,86,65,30.03,29.97,7,0,7,0.00
2013-8-7,83,74,70,75,71,69,98,91,73,30.06,29.98,8,0,8,0.07
2013-8-8,84,74,68,77,71,68,98,91,74,30.07,29.99,12,1,12,1.05
2013-8-9,84,73,67,77,71,66,99,94,71,30.12,30.03,11,0,11,0.56
2013-8-10,83,74,70,78,72,69,99,94,81,30.15,30.09,11,0,11,0.01
2013-8-11,87,75,68,76,71,67,99,90,66,30.18,30.08,8,0,8,0.01
2013-8-12,83,74,70,76,72,70,99,94,76,30.14,30.00,12,0,12,0.00
2013-8-13,83,74,69,74,71,68,99,92,69,30.02,29.88,12,1,12,0.00
2013-8-14,78,70,65,70,66,63,99,88,68,30.05,29.92,13,1,13,1.11
2013-8-15,77,68,60,65,62,58,97,82,62,30.11,30.03,12,1,12,0.00
2013-8-16,74,65,58,66,61,56,98,87,72,30.15,30.07,9,1,9,0.00
2013-8-17,70,65,62,65,62,59,98,91,76,30.17,30.10,9,0,9,0.81
2013-8-18,74,68,63,70,66,62,99,95,82,30.22,30.13,8,0,8,0.51
2013-8-19,77,69,65,74,68,64,99,96,84,30.19,30.08,7,0,7,1.00
2013-8-20,81,71,62,73,68,62,99,89,72,30.20,30.11,11,1,11,0.01
2013-8-21,72,69,65,71,68,65,99,97,92,30.26,30.15,8,0,8,0.74
2013-8-22,83,72,66,75,70,65,100,91,73,30.21,30.07,9,0,9,0.01
2013-8-23,85,73,65,74,68,64,99,87,59,30.12,30.00,9,1,9,0.01
2013-8-24,86,72,64,73,68,63,99,87,62,30.27,30.07,12,1,12,0.00
2013-8-25,84,70,58,68,63,58,98,80,53,30.38,30.26,11,0,11,0.00
2013-8-26,82,68,58,68,63,58,99,85,56,30.34,30.17,12,1,12,0.00
2013-8-27,82,70,61,72,66,60,99,88,63,30.20,30.06,8,0,8,0.01
2013-8-28,85,72,64,74,68,63,99,88,64,30.10,30.00,12,1,12,0.00
2013-8-30,90,79,70,75,73,69,99,82,55,30.04,29.94,4,1,9,0.00
2013-8-31,89,76,67,76,71,66,99,87,58,29.99,29.87,5,1,10,0.00
2013-9-1,86,73,66,76,70,66,99,91,64,29.95,29.85,6,0,10,0.14
2013-9-2,81,72,67,73,69,66,99,91,73,29.99,29.88,3,0,8,0.00
2013-9-3,84,73,67,73,69,65,99,87,61,30.01,29.88,5,1,11,0.80
2013-9-4,86,72,65,72,67,63,99,86,57,30.13,30.01,2,0,8,0.01
2013-9-5,86,70,63,71,66,62,99,87,50,30.17,30.10,5,0,9,0.00
2013-9-6,87,72,63,72,66,62,99,83,50,30.19,30.08,3,0,8,0.01
2013-9-7,84,71,62,71,66,61,99,86,59,30.15,30.02,4,0,7,0.01
2013-9-8,84,71,62,72,65,61,99,85,54,30.06,29.97,7,1,13,0.00
2013-9-9,86,72,62,73,67,61,99,87,61,30.16,30.04,4,0,10,0.00
2013-9-10,89,73,63,73,67,62,99,83,49,30.25,30.16,3,0,8,0.01
2013-9-11,88,72,63,73,66,62,99,85,50,30.26,30.12,3,0,10,0.01
2013-9-12,83,72,66,73,70,65,99,93,72,30.10,29.94,17,0,17,1.28
2013-9-13,77,68,54,68,62,52,99,82,57,29.96,29.87,15,2,15,0.04
2013-9-14,80,61,47,65,55,46,99,82,44,30.13,29.95,9,0,9,0.00
2013-9-15,81,64,50,68,58,49,98,83,51,30.22,30.13,15,1,15,0.00
2013-9-16,81,67,58,70,61,57,99,83,47,30.20,30.11,10,1,10,0.00
2013-9-17,76,66,58,65,60,57,98,82,61,30.25,30.16,17,2,17,0.00
2013-9-18,74,64,56,65,59,55,98,86,67,30.27,30.16,8,0,8,0.00
2013-9-19,82,66,56,69,61,55,99,86,57,30.24,30.09,7,0,7,0.00
2013-9-20,84,69,59,69,63,59,99,84,52,30.13,29.93,12,0,12,0.00
2013-9-21,68,65,60,67,64,58,98,96,92,29.95,29.73,11,1,11,1.62
2013-9-22,74,60,51,62,56,50,99,87,56,29.95,29.81,13,1,13,0.00
2013-9-23,78,62,52,64,57,52,100,85,54,30.07,29.95,11,0,11,0.01
2013-9-24,71,62,53,66,59,52,99,92,78,30.09,29.94,11,0,11,0.00
2013-9-25,67,63,62,65,62,61,99,96,88,29.94,29.85,9,0,9,1.79
2013-9-26,77,66,60,66,62,58,99,88,64,30.05,29.90,12,1,12,0.00
2013-9-27,78,64,55,65,59,54,99,85,56,30.18,30.05,9,0,9,0.01
2013-9-28,77,63,51,65,57,50,99,83,53,30.25,30.12,9,0,9,0.00
2013-9-29,72,60,50,61,55,48,98,85,56,30.18,30.06,7,0,7,0.00
2013-9-30,76,62,53,63,56,52,99,85,50,30.14,30.03,9,0,9,0.00
2013-10-1,74,56,50,63,54,49,99,94,60,30.22,30.11,6,0,6,0.00
2013-10-2,81,74,56,69,65,56,98,75,57,30.21,30.09,9,0,9,0.01
2013-10-3,61,60,60,60,59,58,95,94,93,30.16,30.14,0,0,0,0.00
2013-10-4,85,65,54,68,60,54,99,86,48,30.21,30.11,7,0,7,0.00
2013-10-5,84,67,58,70,62,57,99,85,52,30.18,30.03,9,0,9,0.01
2013-10-6,80,67,55,67,61,54,99,85,58,30.07,29.87,13,1,13,0.18
2013-10-7,68,59,48,64,54,46,98,86,63,30.05,29.84,16,2,16,0.49
2013-10-8,76,55,46,61,51,45,99,89,53,30.18,30.05,10,0,10,0.00
2013-10-9,60,55,49,56,53,49,98,93,88,30.23,30.15,1,0,1,0.00
2013-10-10,71,55,51,63,53,51,99,93,57,30.19,30.12,16,1,16,0.00
2013-10-14,77,67,56,65,61,55,99,81,62,30.26,30.13,9,1,9,0.00
2013-10-15,72,61,52,61,57,50,98,85,64,30.19,30.06,9,0,9,0.00
2013-10-16,69,60,53,61,57,51,98,90,75,30.10,29.99,5,0,5,0.01
2013-10-17,68,62,56,63,59,51,96,91,83,30.01,29.89,12,1,12,0.17
2013-10-18,70,55,46,56,50,44,94,84,54,30.08,29.97,9,0,9,0.00
2013-10-19,64,54,48,55,50,46,98,88,67,30.04,29.96,11,1,11,0.00
2013-10-20,68,49,36,47,41,34,95,78,33,30.14,30.04,8,0,8,0.00
2013-10-21,48,39,37,47,38,36,98,95,92,30.21,30.14,3,0,3,0.00
2013-10-24,57,49,43,42,40,37,90,72,54,30.29,30.19,11,2,12,0.00
2013-10-25,51,39,28,38,28,24,91,68,39,30.46,30.29,8,2,15,0.00
2013-10-26,60,40,25,40,30,23,97,74,34,30.43,30.24,5,1,10,0.00
2013-10-27,54,53,51,51,50,49,92,90,88,30.20,30.18,0,0,1,0.00
2013-10-28,60,54,49,57,51,48,98,93,79,30.30,30.19,3,0,9,0.07
2013-10-29,69,60,52,60,55,50,99,84,65,30.40,30.28,4,0,7,0.00
2013-10-30,76,59,48,60,53,46,98,82,54,30.36,30.18,3,0,7,0.01
2013-10-31,69,62,54,61,57,52,93,83,72,30.21,29.79,7,2,16,0.04
2013-11-1,73,63,47,62,54,45,93,75,37,29.84,29.71,7,2,18,0.19
2013-11-2,61,48,37,51,40,36,98,77,46,30.13,29.83,9,2,18,0.00
2013-11-3,61,46,33,43,38,32,96,77,46,30.38,30.12,4,1,8,0.00
2013-11-4,60,43,29,47,35,28,98,75,44,30.50,30.38,8,2,18,0.00
2013-11-5,54,52,48,41,38,36,72,60,52,30.42,30.41,4,1,9,0.00
2013-11-6,69,59,46,56,52,40,92,79,63,30.41,30.14,9,3,19,0.00
2013-11-7,59,50,40,56,46,33,97,85,67,30.27,30.05,11,3,21,0.27
2013-11-8,56,41,27,37,28,23,95,67,29,30.42,30.27,5,1,11,0.00
2013-11-9,58,40,25,42,32,24,100,77,39,30.43,30.31,3,0,9,0.00
2013-11-10,66,48,35,44,37,33,97,71,31,30.38,30.28,8,2,15,0.00
2013-11-11,67,41,27,42,24,-100,97,66,22,30.40,30.23,4,-55,8,0.00
2013-11-12,50,37,25,41,30,17,96,77,61,30.55,30.22,12,4,23,0.00
2013-11-13,47,29,15,23,18,13,93,67,30,30.69,30.54,4,1,8,0.00
2013-11-14,52,26,17,32,20,15,95,79,28,30.60,30.39,2,0,3,0.00
2013-11-15,50,39,26,50,37,22,98,93,85,30.43,30.22,3,0,11,0.15
2013-11-16,62,56,49,57,53,48,99,92,79,30.27,30.17,5,1,11,0.00
2013-11-17,65,61,59,64,58,55,98,90,85,30.18,29.93,6,2,16,0.18
2013-11-18,65,57,45,64,44,32,98,65,37,30.12,29.90,12,4,20,0.02
2013-11-19,58,44,34,34,30,25,86,61,30,30.25,30.09,7,1,12,0.00
2013-11-20,57,41,26,37,30,24,96,68,36,30.42,30.24,8,2,17,0.00
2013-11-21,61,50,36,55,46,31,95,86,76,30.45,30.34,7,2,14,0.00
2013-11-22,63,58,56,60,56,54,97,92,88,30.38,30.20,4,0,7,0.12
2013-11-23,57,44,34,56,40,23,96,84,65,30.35,30.19,9,5,16,0.01
2013-11-24,40,29,22,23,17,13,83,62,35,30.56,30.34,9,3,16,0.00
2013-11-25,46,35,21,36,21,7,93,63,22,30.56,30.28,6,1,12,0.10
2013-11-26,48,41,37,48,40,35,99,97,93,30.28,29.74,8,2,13,3.08
2013-11-27,38,31,24,37,28,19,96,88,76,30.32,29.76,11,8,23,0.02
2013-11-28,48,29,15,29,22,13,94,77,40,30.58,30.32,4,0,9,0.00
2013-11-29,56,34,21,35,26,19,97,79,40,30.66,30.53,2,0,6,0.00
2013-11-30,56,36,22,35,26,21,97,74,32,30.63,30.41,5,1,11,0.00
2013-12-1,52,34,28,41,31,26,95,89,66,30.41,30.09,3,0,4,0.00
2013-12-2,47,43,40,46,41,36,97,93,88,30.09,29.88,2,0,3,0.20
2013-12-3,55,51,46,53,49,45,99,94,89,29.95,29.88,4,1,9,0.04
2013-12-4,66,58,51,59,54,49,96,87,77,30.06,29.94,5,1,12,0.00
2013-12-5,69,61,53,63,56,50,94,85,80,30.10,29.99,5,0,8,0.32
2013-12-6,68,63,48,61,57,44,86,80,77,30.09,29.95,6,2,14,0.82
2013-12-7,48,40,37,44,36,34,89,87,85,30.39,30.07,5,1,10,0.00
2013-12-8,50,45,39,47,42,35,92,86,83,30.36,30.15,6,2,15,1.20
2013-12-9,53,50,45,50,46,39,93,83,77,30.18,30.04,3,0,9,0.29
2013-12-10,48,38,25,44,33,22,86,82,71,30.41,29.99,11,3,21,0.45
2013-12-11,53,33,21,32,23,17,87,72,30,30.56,30.40,4,0,8,0.00
2013-12-12,40,31,22,26,20,10,87,66,30,30.55,30.46,7,3,13,0.00
2013-12-13,50,32,17,32,23,15,92,71,37,30.51,30.26,2,0,6,0.00
2013-12-14,50,47,41,49,42,26,95,83,48,30.29,29.85,8,1,16,0.60
2013-12-15,49,35,27,47,31,23,92,87,84,30.28,29.88,10,6,18,0.01
2013-12-16,54,34,23,38,28,20,93,81,42,30.37,30.24,4,0,9,0.00
2013-12-17,60,39,24,43,31,23,100,75,42,30.33,30.12,10,2,21,0.00
2013-12-18,49,36,26,25,20,11,85,57,22,30.39,30.28,8,3,19,0.00
2013-12-19,64,38,21,35,26,19,94,70,23,30.44,30.28,3,0,6,0.00
2013-12-20,64,46,30,53,39,28,94,78,41,30.31,30.18,5,1,9,0.00
2013-12-21,67,62,57,62,58,52,87,84,82,30.17,29.92,8,3,21,0.03
2013-12-22,68,58,52,62,55,49,93,89,80,30.12,29.87,10,1,19,2.44
2013-12-23,52,43,32,49,40,28,93,88,84,30.34,30.06,9,3,19,0.15
2013-12-24,33,29,19,28,23,16,87,79,62,30.51,30.34,10,4,19,0.00
2013-12-25,46,29,16,28,20,14,90,74,37,30.59,30.43,5,1,13,0.00
2013-12-26,49,31,20,35,24,18,98,77,40,30.50,30.38,5,1,10,0.00
2013-12-27,55,33,21,36,26,19,94,78,37,30.58,30.45,2,0,7,0.00
2013-12-28,41,32,23,40,30,21,97,93,91,30.52,30.05,2,0,6,0.88
2013-12-29,48,44,36,47,41,33,98,91,85,30.12,29.93,7,2,12,0.33
2013-12-30,40,38,35,38,34,31,91,87,85,30.28,30.09,5,1,10,0.00
2013-12-31,42,33,26,31,26,23,89,78,47,30.50,30.26,8,1,12,0.00
2014-1-1,50,34,24,35,27,22,91,78,45,30.45,30.21,6,1,11,0.00
2014-1-2,45,35,19,42,32,14,92,88,83,30.21,29.82,14,5,28,0.39